Terra Nova, Canada
Current Conditions -  °F | °C
As of 7:00 AM on Wednesday 26 Nov 2014 (Local Time) from CYQX Reporting Station
Broken Clouds Broken Clouds  
Wind Chill: 30°   Ceiling: 26000
Heat Index: 39°   Visibility: 20mi
Dew Point: 32°   Wind: 20mph
Humidity: 75%   Direction: 270°W
Pressure: 29.71"   Gusts: 29mph
Location:  48.5°N, 54.22°W
Report Text: CYQX 261000Z 27017G25KT 20SM FEW025 FEW120 BKN260 04/M00 A2971 RMK SC1AC1CI4 PRESRR SLP066
Loading
Personal Weather Stations






























Interactive Weather Map New forecast layout! Learn more

10-Day Weather Forecast

Advertisements
Track Severe Weather on mobile